Time;durP1;ratioP1;P1;durP2;ratioP2;P2;SDS_P1;SDS_P2;PMS_P1;PMS_P2;Temp;Humidity;BMP_temperature;BMP_pressure;BME280_temperature;BME280_humidity;BME280_pressure;Samples;Min_cycle;Max_cycle;Signal;HPM_P1;HPM_P2
2021/10/28 00:14:52;;;;;;;2.13;1.20;;;17.50;70.80;;;;;;10374007;28;20042;-58
2021/10/28 00:19:53;;;;;;;2.30;1.50;;;17.50;70.80;;;;;;10345770;28;20765;-57
2021/10/28 00:24:54;;;;;;;2.58;1.30;;;17.50;70.80;;;;;;10341596;28;20105;-55
2021/10/28 00:29:55;;;;;;;2.30;1.50;;;17.50;70.90;;;;;;10342723;28;20036;-55
2021/10/28 00:34:55;;;;;;;1.70;1.45;;;17.50;70.90;;;;;;10331527;28;20110;-57
2021/10/28 00:39:56;;;;;;;2.15;1.88;;;17.50;71.00;;;;;;10330832;28;20129;-55
2021/10/28 00:44:57;;;;;;;1.73;1.42;;;17.50;71.00;;;;;;10332134;28;20117;-58
2021/10/28 00:49:57;;;;;;;2.17;1.40;;;17.50;71.00;;;;;;10331765;28;20065;-58
2021/10/28 00:54:58;;;;;;;1.98;1.33;;;17.50;71.00;;;;;;10331674;28;20454;-58
2021/10/28 00:59:59;;;;;;;2.42;1.58;;;17.50;71.00;;;;;;10314027;28;20018;-58
2021/10/28 01:05:00;;;;;;;2.65;1.48;;;17.50;71.00;;;;;;10369185;28;20030;-57
2021/10/28 01:10:02;;;;;;;2.30;1.80;;;17.50;71.00;;;;;;10370523;28;20029;-57
2021/10/28 01:15:12;;;;;;;2.05;1.50;;;17.50;70.90;;;;;;10370237;28;20427;-57
2021/10/28 01:20:14;;;;;;;1.83;1.30;;;17.60;70.60;;;;;;10341626;28;20073;-57
2021/10/28 01:25:14;;;;;;;1.70;1.27;;;17.70;70.30;;;;;;10341516;28;20030;-58
2021/10/28 01:30:15;;;;;;;1.90;1.50;;;17.70;70.30;;;;;;10338661;28;20482;-57
2021/10/28 01:35:16;;;;;;;1.88;1.30;;;17.60;70.30;;;;;;10330339;28;20026;-58
2021/10/28 01:40:17;;;;;;;2.45;1.52;;;17.60;70.40;;;;;;10328927;28;20510;-57
2021/10/28 01:45:19;;;;;;;2.60;1.63;;;17.60;70.60;;;;;;10330216;28;20026;-58
2021/10/28 01:50:20;;;;;;;2.58;1.63;;;17.50;70.60;;;;;;10330037;28;20070;-56
2021/10/28 01:55:21;;;;;;;2.33;1.80;;;17.50;70.70;;;;;;10330064;28;20153;-56
2021/10/28 02:00:22;;;;;;;2.03;1.30;;;17.50;70.80;;;;;;10330617;28;20019;-57
2021/10/28 02:05:24;;;;;;;2.70;1.55;;;17.40;70.80;;;;;;10370230;28;20034;-58
2021/10/28 02:10:25;;;;;;;1.95;1.38;;;17.40;70.80;;;;;;10370156;28;20253;-57
2021/10/28 02:15:25;;;;;;;1.88;1.45;;;17.40;70.90;;;;;;10368896;28;20489;-57
2021/10/28 02:20:26;;;;;;;2.40;1.75;;;17.40;70.90;;;;;;10338711;28;20057;-57
2021/10/28 02:25:27;;;;;;;1.65;1.15;;;17.40;71.00;;;;;;10342659;28;20037;-58
2021/10/28 02:30:28;;;;;;;1.98;1.20;;;17.40;70.90;;;;;;10335432;28;20061;-58
2021/10/28 02:35:29;;;;;;;1.58;1.25;;;17.50;70.60;;;;;;10332048;28;20510;-58
2021/10/28 02:40:30;;;;;;;3.25;1.40;;;17.50;70.50;;;;;;10336869;28;20049;-58
2021/10/28 02:45:30;;;;;;;2.13;1.48;;;17.50;70.60;;;;;;10337149;28;20026;-57
2021/10/28 02:50:31;;;;;;;1.23;1.02;;;17.50;70.60;;;;;;10336613;28;20026;-58
2021/10/28 02:55:32;;;;;;;2.08;1.45;;;17.50;70.60;;;;;;10336212;28;20043;-58
2021/10/28 03:00:32;;;;;;;1.70;1.02;;;17.60;70.20;;;;;;10338604;28;20038;-58
2021/10/28 03:05:33;;;;;;;2.50;1.58;;;17.70;69.80;;;;;;10376640;28;20070;-57
2021/10/28 03:10:34;;;;;;;2.30;1.25;;;17.70;69.80;;;;;;10376244;28;20060;-56
2021/10/28 03:15:37;;;;;;;1.77;1.40;;;17.70;69.90;;;;;;10376266;28;20121;-57
2021/10/28 03:25:57;;;;;;;1.67;1.40;;;17.60;70.10;;;;;;10351461;28;20124;-58
2021/10/28 03:30:57;;;;;;;2.42;1.65;;;17.60;70.20;;;;;;10338702;28;20462;-58
2021/10/28 03:35:58;;;;;;;2.53;1.40;;;17.50;70.30;;;;;;10335203;28;20130;-57
2021/10/28 03:58:03;;;;;;;2.35;1.65;;;17.50;70.50;;;;;;10334020;28;20426;-58
2021/10/28 04:08:19;;;;;;;1.80;1.38;;;17.50;70.40;;;;;;10374152;28;20050;-56
2021/10/28 04:19:02;;;;;;;1.52;1.10;;;17.70;69.80;;;;;;10356395;28;20046;-58
2021/10/28 04:29:22;;;;;;;2.00;1.30;;;17.60;69.80;;;;;;10349173;28;20038;-57
2021/10/28 04:34:24;;;;;;;1.95;1.30;;;17.60;70.00;;;;;;10332512;28;20537;-58
2021/10/28 04:39:25;;;;;;;2.10;1.20;;;17.50;70.00;;;;;;10332235;28;20037;-58
2021/10/28 04:44:26;;;;;;;1.80;1.35;;;17.70;69.80;;;;;;10332019;28;20122;-57
2021/10/28 04:49:26;;;;;;;2.17;1.38;;;17.90;69.00;;;;;;10332100;28;20165;-56
2021/10/28 04:54:27;;;;;;;2.22;1.30;;;18.20;68.10;;;;;;10331735;28;20061;-57
2021/10/28 04:59:28;;;;;;;2.22;1.25;;;18.40;67.40;;;;;;10330881;28;20058;-58
2021/10/28 05:04:28;;;;;;;2.67;1.58;;;18.40;67.20;;;;;;10365454;28;20037;-55
2021/10/28 05:09:30;;;;;;;1.95;1.33;;;18.60;66.90;;;;;;10371695;28;20056;-58
2021/10/28 05:14:30;;;;;;;2.10;1.65;;;18.60;66.60;;;;;;10370228;28;20056;-57
2021/10/28 05:19:34;;;;;;;1.58;1.00;;;18.60;66.60;;;;;;10347253;28;20109;-58
2021/10/28 05:24:35;;;;;;;1.77;1.10;;;18.60;66.80;;;;;;10335648;28;20017;-58
2021/10/28 05:29:36;;;;;;;2.10;1.55;;;18.50;67.00;;;;;;10343669;28;20372;-56
2021/10/28 05:34:37;;;;;;;1.60;1.17;;;18.60;66.90;;;;;;10330406;28;20038;-58
2021/10/28 05:39:38;;;;;;;2.00;1.33;;;18.60;66.90;;;;;;10330057;28;20114;-56
2021/10/28 05:44:39;;;;;;;2.42;1.17;;;18.60;67.30;;;;;;10330381;28;20042;-57
2021/10/28 05:49:40;;;;;;;2.03;1.30;;;18.60;66.90;;;;;;10330572;28;20397;-58
2021/10/28 05:54:41;;;;;;;2.42;1.40;;;18.60;66.80;;;;;;10330147;28;20108;-58
2021/10/28 05:59:42;;;;;;;2.13;1.40;;;18.60;66.80;;;;;;10328666;28;20030;-58
2021/10/28 06:04:42;;;;;;;1.40;1.10;;;18.60;67.00;;;;;;10365806;28;20113;-58
2021/10/28 06:09:44;;;;;;;2.50;1.63;;;18.60;66.90;;;;;;10371483;28;20088;-58
2021/10/28 06:14:44;;;;;;;1.73;1.30;;;18.60;66.80;;;;;;10377706;28;20547;-57
2021/10/28 06:19:45;;;;;;;1.75;1.30;;;18.60;66.90;;;;;;10348357;28;20116;-57
2021/10/28 06:24:46;;;;;;;1.67;1.15;;;18.60;66.60;;;;;;10344125;28;20365;-58
2021/10/28 06:29:46;;;;;;;1.42;1.23;;;18.70;66.70;;;;;;10350506;28;20490;-58
2021/10/28 06:34:48;;;;;;;2.22;1.52;;;18.60;66.80;;;;;;10337880;28;20034;-57
2021/10/28 06:39:49;;;;;;;1.75;1.17;;;18.60;66.90;;;;;;10337417;28;20057;-57
2021/10/28 06:44:50;;;;;;;2.05;1.42;;;18.60;66.90;;;;;;10337377;28;20033;-57
2021/10/28 06:49:51;;;;;;;2.05;1.40;;;18.50;67.10;;;;;;10336023;28;20031;-57
2021/10/28 06:54:53;;;;;;;1.67;1.50;;;18.50;67.20;;;;;;10336998;28;20434;-58
2021/10/28 07:05:13;;;;;;;1.70;1.20;;;18.60;66.90;;;;;;10376431;28;20072;-58
2021/10/28 07:10:16;;;;;;;2.03;1.33;;;18.60;66.90;;;;;;10377181;28;20265;-58
2021/10/28 07:20:33;;;;;;;2.42;1.50;;;18.60;67.00;;;;;;10344536;28;20474;-57
2021/10/28 08:23:48;;;;;;;1.63;1.47;;;18.20;68.40;;;;;;10333724;28;20042;-58
2021/10/28 08:28:52;;;;;;;2.17;1.30;;;18.20;68.70;;;;;;10352324;28;20084;-57
2021/10/28 08:33:52;;;;;;;1.63;1.17;;;18.20;69.30;;;;;;10333245;28;20156;-55
2021/10/28 08:38:55;;;;;;;2.25;1.55;;;18.10;69.40;;;;;;10333456;28;20077;-58
2021/10/28 08:43:56;;;;;;;2.08;1.35;;;18.10;69.40;;;;;;10332684;28;20057;-55
2021/10/28 08:49:03;;;;;;;2.25;1.42;;;18.10;69.50;;;;;;10332976;28;20550;-58
2021/10/28 09:31:55;;;;;;;1.58;1.17;;;18.10;69.80;;;;;;10331608;28;20038;-58
2021/10/28 09:48:08;;;;;;;3.22;1.40;;;18.20;69.90;;;;;;10330006;28;20042;-58
2021/10/28 09:53:21;;;;;;;2.85;1.80;;;18.20;69.80;;;;;;10331015;28;20049;-57
2021/10/28 09:58:34;;;;;;;1.77;1.30;;;18.20;69.90;;;;;;10329739;28;20035;-58
2021/10/28 10:03:39;;;;;;;2.05;1.30;;;18.20;69.90;;;;;;10357547;28;20033;-58
2021/10/28 10:08:41;;;;;;;2.58;1.63;;;18.20;69.80;;;;;;10369970;28;20076;-58
2021/10/28 10:13:42;;;;;;;1.88;1.10;;;18.20;69.80;;;;;;10370244;28;20036;-56
2021/10/28 10:18:48;;;;;;;1.73;1.10;;;18.30;69.80;;;;;;10352390;28;20068;-58
2021/10/28 10:29:58;;;;;;;1.73;1.20;;;18.30;69.80;;;;;;10344071;28;20100;-58
2021/10/28 12:01:54;;;;;;;1.90;1.30;;;18.60;69.70;;;;;;10360300;28;20509;-58
2021/10/28 12:19:50;;;;;;;3.25;1.30;;;18.60;69.60;;;;;;10367469;28;20050;-58
2021/10/28 12:44:59;;;;;;;1.88;1.20;;;18.50;69.90;;;;;;10363671;28;20057;-58
2021/10/28 13:06:33;;;;;;;2.22;1.30;;;18.50;70.20;;;;;;10373346;28;20398;-57
2021/10/28 13:38:30;;;;;;;2.77;1.60;;;18.50;70.30;;;;;;10359506;28;20692;-58
2021/10/28 13:49:02;;;;;;;2.53;1.40;;;18.40;70.40;;;;;;10372175;28;20042;-59
2021/10/28 14:00:01;;;;;;;1.60;1.30;;;18.40;70.60;;;;;;10371370;28;20048;-57
2021/10/28 15:29:25;;;;;;;2.15;1.33;;;17.90;71.30;;;;;;10376182;28;20120;-57
2021/10/28 15:39:40;;;;;;;2.70;1.67;;;17.90;71.40;;;;;;10375943;28;20462;-58
2021/10/28 16:01:11;;;;;;;2.07;1.37;;;17.90;71.50;;;;;;10374184;28;20104;-57
2021/10/28 16:22:09;;;;;;;1.53;1.00;;;17.80;71.50;;;;;;10333033;28;20031;-58
2021/10/28 16:27:11;;;;;;;2.10;1.10;;;17.90;71.40;;;;;;10354038;28;20034;-57
2021/10/28 16:32:16;;;;;;;1.48;0.90;;;17.90;71.30;;;;;;10333334;28;20045;-54
2021/10/28 16:37:18;;;;;;;2.67;1.10;;;17.90;71.20;;;;;;10333451;28;20062;-58
2021/10/28 16:42:20;;;;;;;1.60;1.20;;;17.90;71.20;;;;;;10331971;28;20046;-56
2021/10/28 16:47:21;;;;;;;1.90;1.25;;;17.90;71.30;;;;;;10332505;28;20039;-57
2021/10/28 16:52:21;;;;;;;2.35;1.38;;;17.90;71.20;;;;;;10332267;28;20033;-56
2021/10/28 16:57:22;;;;;;;2.58;1.33;;;17.80;71.20;;;;;;10332066;28;20113;-58
2021/10/28 17:02:23;;;;;;;1.63;1.15;;;17.80;71.30;;;;;;10348147;28;20069;-58
2021/10/28 17:07:24;;;;;;;1.50;0.93;;;17.80;71.20;;;;;;10371080;28;20113;-58
2021/10/28 17:12:25;;;;;;;1.30;0.90;;;17.90;71.10;;;;;;10371983;28;20067;-58
2021/10/28 17:17:26;;;;;;;1.75;1.20;;;18.00;70.60;;;;;;10364618;28;20022;-57
2021/10/28 17:22:26;;;;;;;1.75;0.95;;;18.00;70.50;;;;;;10330962;28;20109;-56
2021/10/28 17:27:27;;;;;;;2.03;1.10;;;18.00;70.50;;;;;;10350432;28;20054;-58
2021/10/28 17:32:28;;;;;;;1.77;1.10;;;18.00;70.70;;;;;;10331178;28;20407;-57
2021/10/28 17:37:29;;;;;;;1.95;0.98;;;17.90;70.80;;;;;;10330263;28;20039;-58
2021/10/28 17:42:29;;;;;;;1.55;1.10;;;17.90;70.70;;;;;;10330226;28;20117;-56
2021/10/28 17:47:30;;;;;;;1.50;1.10;;;17.90;70.80;;;;;;10330103;28;20611;-58
2021/10/28 17:52:31;;;;;;;2.58;1.73;;;17.90;70.90;;;;;;10330158;28;20483;-58
2021/10/28 17:57:32;;;;;;;1.63;1.20;;;17.90;71.50;;;;;;10329003;28;20113;-58
2021/10/28 18:02:34;;;;;;;2.60;1.20;;;17.90;71.00;;;;;;10347707;28;20667;-57
2021/10/28 18:07:35;;;;;;;2.22;1.30;;;17.90;71.10;;;;;;10374063;28;20022;-58
2021/10/28 18:12:37;;;;;;;2.35;1.45;;;17.80;71.00;;;;;;10378959;28;20476;-58
2021/10/28 18:17:38;;;;;;;2.72;1.25;;;17.80;71.00;;;;;;10369771;28;20041;-57
2021/10/28 18:22:42;;;;;;;2.30;1.65;;;17.80;71.10;;;;;;10338063;28;20030;-58
2021/10/28 18:27:43;;;;;;;2.03;1.30;;;17.90;70.80;;;;;;10357650;28;20057;-56
2021/10/28 18:32:45;;;;;;;2.30;1.58;;;17.90;70.70;;;;;;10337792;28;20378;-58
2021/10/28 18:37:49;;;;;;;2.58;1.25;;;17.90;70.70;;;;;;10337179;28;20399;-57
2021/10/28 18:42:49;;;;;;;2.25;1.33;;;17.90;70.40;;;;;;10337659;28;20525;-57
2021/10/28 18:47:51;;;;;;;2.00;1.30;;;18.00;70.20;;;;;;10336936;28;20045;-58
2021/10/28 18:52:52;;;;;;;1.45;1.08;;;18.00;70.20;;;;;;10336561;28;20085;-57
2021/10/28 18:57:53;;;;;;;2.03;1.55;;;18.00;70.30;;;;;;10335172;28;20403;-56
2021/10/28 19:02:53;;;;;;;1.90;1.30;;;18.00;70.50;;;;;;10357378;28;20080;-58
2021/10/28 19:07:54;;;;;;;1.88;1.13;;;17.90;70.60;;;;;;10376528;28;20060;-57
2021/10/28 19:12:55;;;;;;;1.50;1.10;;;17.90;70.60;;;;;;10376914;28;20172;-58
2021/10/28 19:17:56;;;;;;;2.85;1.45;;;17.90;70.60;;;;;;10363906;28;20486;-57
2021/10/28 19:22:57;;;;;;;2.45;1.38;;;17.80;70.60;;;;;;10334270;28;20041;-58
2021/10/28 19:27:58;;;;;;;2.55;1.42;;;17.80;70.60;;;;;;10355473;28;20037;-56
2021/10/28 19:33:06;;;;;;;2.20;1.23;;;17.80;70.70;;;;;;10335176;28;20042;-57
2021/10/28 19:38:21;;;;;;;2.33;1.52;;;17.80;70.80;;;;;;10334892;28;20035;-58
2021/10/28 19:48:41;;;;;;;2.83;2.03;;;17.80;71.00;;;;;;10334721;28;20042;-57
2021/10/28 19:53:45;;;;;;;2.33;1.73;;;17.80;71.00;;;;;;10334349;28;20038;-57
2021/10/28 19:58:58;;;;;;;3.03;2.03;;;17.70;71.00;;;;;;10334607;28;20447;-57
2021/10/28 20:24:40;;;;;;;2.40;1.30;;;17.60;71.20;;;;;;10340645;28;20026;-58
2021/10/28 20:29:40;;;;;;;3.15;2.05;;;17.60;71.30;;;;;;10344878;28;20030;-58
2021/10/28 20:40:00;;;;;;;2.43;1.43;;;17.60;71.40;;;;;;10331739;28;20038;-58
2021/10/28 20:45:12;;;;;;;2.78;1.73;;;17.60;71.50;;;;;;10332389;28;20394;-56
2021/10/28 20:50:15;;;;;;;3.65;2.10;;;17.60;72.00;;;;;;10332184;28;20045;-59
2021/10/28 20:55:16;;;;;;;2.17;1.67;;;17.50;71.40;;;;;;10331961;28;20034;-57
2021/10/28 21:00:20;;;;;;;2.50;1.88;;;17.50;71.40;;;;;;10331756;28;20483;-57
2021/10/28 21:05:22;;;;;;;2.05;1.60;;;17.50;71.50;;;;;;10372267;28;20030;-55
2021/10/28 21:10:27;;;;;;;2.47;1.75;;;17.50;71.40;;;;;;10371993;28;20041;-58
2021/10/28 21:15:28;;;;;;;3.08;2.25;;;17.50;71.50;;;;;;10370795;28;20041;-57
2021/10/28 21:20:29;;;;;;;2.60;1.65;;;17.50;71.50;;;;;;10338937;28;20041;-58
2021/10/28 21:25:30;;;;;;;2.67;1.88;;;17.50;71.60;;;;;;10344278;28;20474;-58
2021/10/28 21:30:31;;;;;;;2.67;1.85;;;17.50;71.60;;;;;;10336556;28;20053;-56
2021/10/28 21:35:32;;;;;;;2.72;1.92;;;17.40;71.60;;;;;;10329483;28;20045;-58
2021/10/28 21:40:33;;;;;;;2.95;1.80;;;17.50;71.60;;;;;;10329638;28;20080;-56
2021/10/28 21:45:34;;;;;;;2.67;2.03;;;17.40;71.60;;;;;;10330325;28;20041;-57
2021/10/28 21:50:36;;;;;;;2.45;1.65;;;17.40;71.60;;;;;;10330105;28;20491;-58
2021/10/28 22:01:11;;;;;;;2.90;1.92;;;17.40;71.60;;;;;;10333799;28;20042;-58
2021/10/28 22:27:34;;;;;;;3.05;2.17;;;17.40;71.60;;;;;;10347783;28;20038;-58
2021/10/28 22:32:37;;;;;;;2.67;1.98;;;17.40;71.60;;;;;;10329496;28;20022;-56
2021/10/28 22:42:40;;;;;;;2.72;2.00;;;17.30;71.50;;;;;;10328174;28;20050;-57
2021/10/28 22:47:41;;;;;;;3.13;2.13;;;17.30;71.50;;;;;;10329155;28;20029;-57
2021/10/28 22:52:45;;;;;;;3.13;2.13;;;17.30;71.50;;;;;;10331984;28;20026;-57
2021/10/28 23:08:17;;;;;;;3.05;1.90;;;17.40;71.00;;;;;;10377232;28;20401;-58
2021/10/28 23:24:06;;;;;;;3.97;2.65;;;17.40;70.90;;;;;;10336003;28;20038;-58
2021/10/28 23:29:07;;;;;;;2.83;1.85;;;17.40;70.90;;;;;;10353057;28;20054;-57
2021/10/28 23:34:10;;;;;;;3.40;2.25;;;17.40;70.90;;;;;;10333987;28;20030;-58
2021/10/28 23:39:11;;;;;;;2.83;1.90;;;17.40;71.00;;;;;;10334801;28;20475;-58
2021/10/28 23:44:12;;;;;;;3.05;2.25;;;17.30;71.00;;;;;;10334653;28;20043;-58
2021/10/28 23:49:12;;;;;;;2.70;1.80;;;17.30;71.10;;;;;;10334554;28;20117;-58
2021/10/28 23:54:13;;;;;;;3.08;2.05;;;17.30;71.10;;;;;;10334471;28;20122;-56
2021/10/28 23:59:14;;;;;;;2.88;2.08;;;17.30;71.20;;;;;;10334145;28;20479;-58
